URO863 EGNV-ZWWW
Flight info
| Callsign | URO863 |
|---|---|
| Flight time | N/A |
| Altitude | 37000 |
| Route | GOKOV DCT BARTN UL612 HON L10 ITVIP/N0479F390 L10 DVR UL9 KONAN UL607 MATUG DCT GUBAX DCT KOMIB L984 SULUS Z650 VEMUT DCT PEPIK DCT BUDOP DCT DINRO N743 UDROS UM859 KARDE UN644 ROLIN DCT TETRO DCT BARAD/N0480F410 M747 SUBUT T923 ERLEV L850 BAKUV N701 LARGI B701 KRS B738 NEBIT B476 TIMGA A480 OTBOR/K0872F410 N147 TRK Z621 ARBOL M610 RULAD/K0878S1250 A343 POSOT B215 EPDAG EPDAG9Z |
| Aircraft | A346/H-SDE2E3FGHIJ3J4J5M1RWXY/LB1D1 |
Departure
| Time | 2026-04-12 17:55 |
|---|---|
| Airport | Teesside International Airport (EGNV) |
Arrival
| Time | N/A |
|---|---|
| Airport | Ürümqi Tianshan International Airport (ZWWW) |
| Time | Latitude | Longitude | Altitude | Speed | Heading |
|---|---|---|---|---|---|
| 2026-04-12 17:31 | 54.51070 | -1.43404 | 137 ft | 0 kts | 329° |
| 2026-04-12 17:44 | 54.51070 | -1.43403 | 137 ft | 0 kts | 329° |
| 2026-04-12 17:46 | 54.51065 | -1.43399 | 137 ft | 2 kts | 329° |
| 2026-04-12 17:46 | 54.51053 | -1.43386 | 137 ft | 2 kts | 332° |
| 2026-04-12 17:46 | 54.51038 | -1.43378 | 136 ft | 2 kts | 359° |
| 2026-04-12 17:47 | 54.51024 | -1.43381 | 136 ft | 2 kts | 22° |
| 2026-04-12 17:47 | 54.51011 | -1.43394 | 136 ft | 2 kts | 43° |
| 2026-04-12 17:47 | 54.51004 | -1.43407 | 136 ft | 0 kts | 58° |
| 2026-04-12 17:47 | 54.51001 | -1.43415 | 136 ft | 0 kts | 59° |
| 2026-04-12 17:48 | 54.51001 | -1.43414 | 136 ft | 0 kts | 59° |
| 2026-04-12 17:50 | 54.51004 | -1.43406 | 136 ft | 2 kts | 59° |
| 2026-04-12 17:51 | 54.51022 | -1.43356 | 136 ft | 7 kts | 59° |
| 2026-04-12 17:51 | 54.51053 | -1.43264 | 137 ft | 10 kts | 65° |
| 2026-04-12 17:51 | 54.51063 | -1.43094 | 136 ft | 17 kts | 92° |
| 2026-04-12 17:51 | 54.51059 | -1.42874 | 134 ft | 20 kts | 92° |
| 2026-04-12 17:52 | 54.51071 | -1.42665 | 132 ft | 17 kts | 63° |
| 2026-04-12 17:52 | 54.51156 | -1.42500 | 132 ft | 19 kts | 46° |
| 2026-04-12 17:52 | 54.51249 | -1.42329 | 132 ft | 20 kts | 47° |
| 2026-04-12 17:52 | 54.51350 | -1.42140 | 132 ft | 22 kts | 47° |
| 2026-04-12 17:53 | 54.51457 | -1.41941 | 129 ft | 15 kts | 46° |
| 2026-04-12 17:53 | 54.51537 | -1.41876 | 129 ft | 13 kts | 22° |
| 2026-04-12 17:53 | 54.51608 | -1.41788 | 129 ft | 11 kts | 43° |
| 2026-04-12 17:53 | 54.51632 | -1.41730 | 129 ft | 4 kts | 89° |
| 2026-04-12 17:54 | 54.51611 | -1.41689 | 129 ft | 2 kts | 184° |
| 2026-04-12 17:54 | 54.51587 | -1.41707 | 129 ft | 5 kts | 205° |
| 2026-04-12 17:54 | 54.51572 | -1.41724 | 129 ft | 0 kts | 221° |
| 2026-04-12 17:55 | 54.51519 | -1.41813 | 129 ft | 42 kts | 227° |
| 2026-04-12 17:55 | 54.51146 | -1.42513 | 132 ft | 114 kts | 227° |
| 2026-04-12 17:55 | 54.50470 | -1.43784 | 167 ft | 168 kts | 228° |
| 2026-04-12 17:55 | 54.49681 | -1.45279 | 793 ft | 172 kts | 229° |
| 2026-04-12 17:56 | 54.48864 | -1.46781 | 1528 ft | 176 kts | 223° |
| 2026-04-12 17:56 | 54.47865 | -1.47975 | 2232 ft | 179 kts | 216° |
| 2026-04-12 17:56 | 54.46788 | -1.49168 | 2634 ft | 195 kts | 216° |
| 2026-04-12 17:56 | 54.45595 | -1.50504 | 3006 ft | 214 kts | 216° |
| 2026-04-12 17:57 | 54.44295 | -1.51980 | 3412 ft | 235 kts | 216° |
| 2026-04-12 17:57 | 54.42915 | -1.53560 | 4027 ft | 246 kts | 216° |
| 2026-04-12 17:57 | 54.41495 | -1.55189 | 4874 ft | 249 kts | 216° |
| 2026-04-12 17:57 | 54.40035 | -1.56869 | 5746 ft | 252 kts | 216° |
| 2026-04-12 17:58 | 54.38592 | -1.58533 | 6602 ft | 256 kts | 216° |
| 2026-04-12 17:58 | 54.37121 | -1.60230 | 7483 ft | 258 kts | 216° |
| 2026-04-12 17:58 | 54.35624 | -1.61957 | 8393 ft | 260 kts | 216° |
| 2026-04-12 17:58 | 54.34111 | -1.63647 | 9266 ft | 263 kts | 209° |
| 2026-04-12 17:59 | 54.32330 | -1.64362 | 10070 ft | 273 kts | 184° |
| 2026-04-12 17:59 | 54.30421 | -1.64316 | 10729 ft | 284 kts | 182° |
| 2026-04-12 17:59 | 54.28365 | -1.64224 | 11177 ft | 302 kts | 182° |
| 2026-04-12 17:59 | 54.26185 | -1.64162 | 11593 ft | 321 kts | 182° |
| 2026-04-12 18:00 | 54.23916 | -1.64132 | 11978 ft | 339 kts | 183° |
| 2026-04-12 18:00 | 54.21501 | -1.64125 | 12375 ft | 356 kts | 183° |
| 2026-04-12 18:00 | 54.18993 | -1.64132 | 13101 ft | 363 kts | 183° |
| 2026-04-12 18:00 | 54.16505 | -1.64146 | 14002 ft | 365 kts | 183° |
| 2026-04-12 18:01 | 54.13942 | -1.64169 | 14802 ft | 368 kts | 183° |
| 2026-04-12 18:01 | 54.11391 | -1.64196 | 15611 ft | 371 kts | 183° |
| 2026-04-12 18:01 | 54.08806 | -1.64225 | 16411 ft | 374 kts | 183° |
| 2026-04-12 18:01 | 54.06215 | -1.64257 | 17242 ft | 377 kts | 182° |
| 2026-04-12 18:02 | 54.03582 | -1.64291 | 17985 ft | 380 kts | 182° |
| 2026-04-12 18:02 | 54.00915 | -1.64324 | 18704 ft | 383 kts | 182° |
| 2026-04-12 18:02 | 53.98275 | -1.64357 | 19426 ft | 386 kts | 182° |
| 2026-04-12 18:02 | 53.95604 | -1.64388 | 20112 ft | 389 kts | 183° |
| 2026-04-12 18:03 | 53.92880 | -1.64419 | 20769 ft | 393 kts | 183° |
| 2026-04-12 18:03 | 53.90162 | -1.64453 | 21399 ft | 396 kts | 183° |
| 2026-04-12 18:03 | 53.87353 | -1.64489 | 22037 ft | 400 kts | 184° |
| 2026-04-12 18:03 | 53.84535 | -1.64525 | 22680 ft | 403 kts | 184° |
| 2026-04-12 18:04 | 53.81723 | -1.64560 | 23291 ft | 406 kts | 184° |
| 2026-04-12 18:04 | 53.78889 | -1.64598 | 23893 ft | 409 kts | 184° |
| 2026-04-12 18:04 | 53.76047 | -1.64636 | 24468 ft | 413 kts | 184° |
| 2026-04-12 18:04 | 53.73170 | -1.64674 | 25017 ft | 416 kts | 184° |
| 2026-04-12 18:05 | 53.70283 | -1.64715 | 25525 ft | 419 kts | 184° |
| 2026-04-12 18:05 | 53.67353 | -1.64755 | 26027 ft | 423 kts | 184° |
| 2026-04-12 18:05 | 53.64443 | -1.64794 | 26521 ft | 426 kts | 184° |
| 2026-04-12 18:05 | 53.61467 | -1.64833 | 26997 ft | 429 kts | 184° |
| 2026-04-12 18:06 | 53.58491 | -1.64874 | 27458 ft | 432 kts | 184° |
| 2026-04-12 18:06 | 53.55481 | -1.64913 | 27921 ft | 434 kts | 184° |
| 2026-04-12 18:06 | 53.52446 | -1.64927 | 28354 ft | 438 kts | 182° |
| 2026-04-12 18:06 | 53.49459 | -1.63972 | 28783 ft | 449 kts | 164° |
| 2026-04-12 18:07 | 53.46714 | -1.61451 | 29401 ft | 457 kts | 149° |
| 2026-04-12 18:07 | 53.44292 | -1.58050 | 30050 ft | 456 kts | 145° |
| 2026-04-12 18:07 | 53.41873 | -1.54611 | 30620 ft | 453 kts | 146° |
| 2026-04-12 18:07 | 53.39470 | -1.51249 | 31125 ft | 452 kts | 146° |
| 2026-04-12 18:08 | 53.37093 | -1.47949 | 31523 ft | 451 kts | 147° |
| 2026-04-12 18:08 | 53.34656 | -1.44593 | 31899 ft | 450 kts | 147° |
| 2026-04-12 18:08 | 53.32261 | -1.41305 | 32234 ft | 451 kts | 147° |
| 2026-04-12 18:08 | 53.29836 | -1.37984 | 32569 ft | 451 kts | 147° |
| 2026-04-12 18:09 | 53.27419 | -1.34682 | 32908 ft | 452 kts | 147° |
| 2026-04-12 18:09 | 53.24995 | -1.31377 | 33250 ft | 451 kts | 147° |
| 2026-04-12 18:09 | 53.22578 | -1.28090 | 33566 ft | 451 kts | 147° |
| 2026-04-12 18:09 | 53.20143 | -1.24782 | 33861 ft | 452 kts | 147° |
| 2026-04-12 18:10 | 53.17723 | -1.21496 | 34206 ft | 452 kts | 147° |
| 2026-04-12 18:10 | 53.15311 | -1.18230 | 34580 ft | 452 kts | 147° |
| 2026-04-12 18:10 | 53.12883 | -1.14948 | 34944 ft | 452 kts | 147° |
| 2026-04-12 18:10 | 53.10431 | -1.11638 | 35259 ft | 453 kts | 147° |
| 2026-04-12 18:11 | 53.07974 | -1.08329 | 35442 ft | 457 kts | 147° |
| 2026-04-12 18:11 | 53.05524 | -1.05033 | 35659 ft | 460 kts | 147° |
| 2026-04-12 18:11 | 53.03027 | -1.01675 | 35966 ft | 460 kts | 147° |
| 2026-04-12 18:11 | 53.00544 | -0.98341 | 36260 ft | 459 kts | 147° |
| 2026-04-12 18:12 | 52.98090 | -0.95049 | 36533 ft | 459 kts | 147° |
| 2026-04-12 18:12 | 52.95615 | -0.91734 | 36782 ft | 460 kts | 147° |
| 2026-04-12 18:12 | 52.93126 | -0.88408 | 37015 ft | 460 kts | 147° |
| 2026-04-12 18:12 | 52.90628 | -0.85075 | 37233 ft | 461 kts | 147° |
| 2026-04-12 18:13 | 52.88158 | -0.81786 | 37418 ft | 463 kts | 147° |
| 2026-04-12 18:13 | 52.85657 | -0.78458 | 37584 ft | 465 kts | 146° |
| 2026-04-12 18:13 | 52.83119 | -0.75088 | 37751 ft | 466 kts | 146° |
| 2026-04-12 18:13 | 52.80599 | -0.71747 | 37914 ft | 468 kts | 146° |
| 2026-04-12 18:14 | 52.78074 | -0.68402 | 38074 ft | 469 kts | 146° |
| 2026-04-12 18:14 | 52.75532 | -0.65042 | 38234 ft | 470 kts | 146° |
| 2026-04-12 18:14 | 52.73002 | -0.61702 | 38376 ft | 472 kts | 146° |
| 2026-04-12 18:14 | 52.70428 | -0.58308 | 38515 ft | 473 kts | 146° |
| 2026-04-12 18:15 | 52.67856 | -0.54922 | 38673 ft | 474 kts | 146° |
| 2026-04-12 18:15 | 52.65291 | -0.51550 | 38822 ft | 475 kts | 146° |
| 2026-04-12 18:15 | 52.62719 | -0.48177 | 38869 ft | 476 kts | 146° |
| 2026-04-12 18:16 | 52.57555 | -0.41414 | 38881 ft | 476 kts | 146° |
| 2026-04-12 18:16 | 52.52380 | -0.34659 | 38884 ft | 477 kts | 147° |
| 2026-04-12 18:17 | 52.47224 | -0.27950 | 38882 ft | 476 kts | 147° |
| 2026-04-12 18:17 | 52.42048 | -0.21239 | 38884 ft | 476 kts | 147° |
| 2026-04-12 18:18 | 52.36882 | -0.14558 | 38889 ft | 474 kts | 147° |
| 2026-04-12 18:18 | 52.31708 | -0.07888 | 38898 ft | 475 kts | 147° |
| 2026-04-12 18:19 | 52.26559 | -0.01270 | 38906 ft | 475 kts | 147° |
| 2026-04-12 18:19 | 52.21366 | 0.05380 | 38899 ft | 474 kts | 147° |
| 2026-04-12 18:20 | 52.16213 | 0.11964 | 38903 ft | 474 kts | 147° |
| 2026-04-12 18:20 | 52.11037 | 0.18554 | 38916 ft | 475 kts | 147° |
| 2026-04-12 18:21 | 52.05838 | 0.25150 | 38920 ft | 474 kts | 147° |
| 2026-04-12 18:21 | 52.00674 | 0.31691 | 38928 ft | 473 kts | 147° |
| 2026-04-12 18:22 | 51.95531 | 0.38181 | 38925 ft | 472 kts | 148° |
| 2026-04-12 18:22 | 51.90362 | 0.44684 | 38931 ft | 472 kts | 148° |
| 2026-04-12 18:23 | 51.85163 | 0.51206 | 38935 ft | 473 kts | 147° |
| 2026-04-12 18:23 | 51.79986 | 0.57679 | 38936 ft | 473 kts | 148° |
| 2026-04-12 18:24 | 51.75399 | 0.65451 | 38939 ft | 488 kts | 129° |
| 2026-04-12 18:24 | 51.72166 | 0.75124 | 38952 ft | 494 kts | 123° |
| 2026-04-12 18:25 | 51.69076 | 0.84986 | 38951 ft | 495 kts | 123° |
| 2026-04-12 18:25 | 51.65964 | 0.94772 | 38952 ft | 494 kts | 123° |
| 2026-04-12 18:26 | 51.62812 | 1.04586 | 38959 ft | 494 kts | 123° |
| 2026-04-12 18:26 | 51.59657 | 1.14353 | 38965 ft | 495 kts | 124° |
| 2026-04-12 18:27 | 51.56501 | 1.24078 | 38966 ft | 492 kts | 124° |
| 2026-04-12 18:27 | 51.53343 | 1.33765 | 38967 ft | 492 kts | 124° |
| 2026-04-12 18:28 | 51.50162 | 1.43484 | 38972 ft | 493 kts | 124° |
| 2026-04-12 18:28 | 51.46985 | 1.53159 | 38995 ft | 493 kts | 124° |
| 2026-04-12 18:29 | 51.43814 | 1.62780 | 39191 ft | 490 kts | 124° |
| 2026-04-12 18:29 | 51.42216 | 1.67606 | 39465 ft | 488 kts | 125° |
| 2026-04-12 18:29 | 51.40627 | 1.72399 | 39699 ft | 486 kts | 124° |
| 2026-04-12 18:29 | 51.39051 | 1.77144 | 39863 ft | 486 kts | 124° |
| 2026-04-12 18:30 | 51.37470 | 1.81893 | 39994 ft | 486 kts | 124° |
| 2026-04-12 18:30 | 51.35879 | 1.86667 | 40140 ft | 486 kts | 124° |
| 2026-04-12 18:30 | 51.34296 | 1.91406 | 40297 ft | 486 kts | 124° |
| 2026-04-12 18:30 | 51.32729 | 1.96090 | 40400 ft | 486 kts | 124° |
| 2026-04-12 18:31 | 51.31131 | 2.00859 | 40530 ft | 487 kts | 124° |
| 2026-04-12 18:31 | 51.27943 | 2.10344 | 40752 ft | 486 kts | 124° |
| 2026-04-12 18:31 | 51.26340 | 2.15099 | 40854 ft | 487 kts | 124° |
| 2026-04-12 18:32 | 51.24739 | 2.19843 | 40949 ft | 487 kts | 124° |
| 2026-04-12 18:32 | 51.21535 | 2.29302 | 40989 ft | 488 kts | 124° |
| 2026-04-12 18:33 | 51.18325 | 2.38753 | 40995 ft | 487 kts | 124° |
| 2026-04-12 18:33 | 51.15092 | 2.48232 | 41013 ft | 487 kts | 124° |
| 2026-04-12 18:34 | 51.11885 | 2.57621 | 41005 ft | 488 kts | 122° |
| 2026-04-12 18:34 | 51.09154 | 2.67549 | 41006 ft | 494 kts | 116° |
| 2026-04-12 18:35 | 51.07085 | 2.78022 | 41015 ft | 497 kts | 112° |
| 2026-04-12 18:35 | 51.05210 | 2.88507 | 41006 ft | 497 kts | 112° |
| 2026-04-12 18:36 | 51.03622 | 2.97284 | 41006 ft | 497 kts | 112° |
| 2026-04-12 18:37 | 50.99441 | 3.20035 | 41017 ft | 497 kts | 112° |
| 2026-04-12 18:37 | 50.97492 | 3.30544 | 41027 ft | 495 kts | 112° |
| 2026-04-12 18:38 | 50.95543 | 3.40972 | 41023 ft | 495 kts | 112° |
| 2026-04-12 18:38 | 50.93583 | 3.51409 | 41033 ft | 495 kts | 112° |
| 2026-04-12 18:39 | 50.91627 | 3.61766 | 41055 ft | 495 kts | 112° |
| 2026-04-12 18:39 | 50.89643 | 3.72146 | 41019 ft | 493 kts | 113° |
| 2026-04-12 18:40 | 50.87651 | 3.82443 | 41025 ft | 492 kts | 113° |
| 2026-04-12 18:40 | 50.85644 | 3.92769 | 41023 ft | 493 kts | 113° |
| 2026-04-12 18:41 | 50.83624 | 4.03112 | 41033 ft | 493 kts | 113° |
| 2026-04-12 18:41 | 50.81599 | 4.13434 | 41021 ft | 492 kts | 114° |
| 2026-04-12 18:42 | 50.79561 | 4.23761 | 41018 ft | 492 kts | 114° |
| 2026-04-12 18:42 | 50.77523 | 4.34035 | 41039 ft | 493 kts | 114° |
| 2026-04-12 18:43 | 50.73432 | 4.54532 | 41051 ft | 493 kts | 111° |
| 2026-04-12 18:44 | 50.72041 | 4.65231 | 41025 ft | 500 kts | 106° |
| 2026-04-12 18:44 | 50.70841 | 4.76026 | 41043 ft | 499 kts | 106° |
| 2026-04-12 18:45 | 50.69612 | 4.86702 | 41043 ft | 499 kts | 107° |
| 2026-04-12 18:45 | 50.68336 | 4.97441 | 41046 ft | 499 kts | 107° |
| 2026-04-12 18:46 | 50.67049 | 5.08129 | 41034 ft | 499 kts | 107° |
| 2026-04-12 18:46 | 50.65749 | 5.18823 | 41024 ft | 498 kts | 107° |
| 2026-04-12 18:47 | 50.64435 | 5.29511 | 41033 ft | 499 kts | 107° |
| 2026-04-12 18:47 | 50.63121 | 5.40131 | 41035 ft | 499 kts | 107° |
| 2026-04-12 18:48 | 50.61786 | 5.50843 | 41040 ft | 499 kts | 107° |
| 2026-04-12 18:48 | 50.60446 | 5.61516 | 41036 ft | 499 kts | 107° |
| 2026-04-12 18:49 | 50.59100 | 5.72150 | 41031 ft | 498 kts | 107° |
| 2026-04-12 18:49 | 50.57740 | 5.82799 | 41023 ft | 498 kts | 108° |
| 2026-04-12 18:50 | 50.56373 | 5.93422 | 41024 ft | 497 kts | 107° |
| 2026-04-12 18:50 | 50.54999 | 6.04029 | 41017 ft | 497 kts | 107° |
| 2026-04-12 18:51 | 50.53612 | 6.14662 | 41006 ft | 497 kts | 107° |
| 2026-04-12 18:51 | 50.52216 | 6.25257 | 41021 ft | 497 kts | 107° |
| 2026-04-12 18:52 | 50.50819 | 6.35799 | 41002 ft | 497 kts | 108° |
| 2026-04-12 18:52 | 50.49408 | 6.46362 | 41020 ft | 497 kts | 108° |
| 2026-04-12 18:53 | 50.47993 | 6.56888 | 41021 ft | 495 kts | 108° |
| 2026-04-12 18:53 | 50.46564 | 6.67438 | 41030 ft | 495 kts | 108° |
| 2026-04-12 18:54 | 50.45126 | 6.77963 | 41012 ft | 495 kts | 108° |
| 2026-04-12 18:54 | 50.43686 | 6.88441 | 40997 ft | 494 kts | 108° |
| 2026-04-12 18:55 | 50.42231 | 6.98949 | 41017 ft | 495 kts | 109° |
| 2026-04-12 18:55 | 50.40765 | 7.09458 | 41026 ft | 494 kts | 108° |
| 2026-04-12 18:56 | 50.39295 | 7.19931 | 41023 ft | 494 kts | 109° |
| 2026-04-12 18:56 | 50.37808 | 7.30436 | 41039 ft | 495 kts | 108° |
| 2026-04-12 18:57 | 50.36316 | 7.40908 | 41038 ft | 495 kts | 108° |
| 2026-04-12 18:57 | 50.34819 | 7.51361 | 41040 ft | 494 kts | 108° |
| 2026-04-12 18:58 | 50.33309 | 7.61814 | 41030 ft | 494 kts | 108° |
| 2026-04-12 18:58 | 50.31797 | 7.72226 | 41042 ft | 494 kts | 109° |
| 2026-04-12 18:59 | 50.30268 | 7.82670 | 41049 ft | 493 kts | 109° |
| 2026-04-12 18:59 | 50.28872 | 7.93140 | 41041 ft | 497 kts | 104° |
| 2026-04-12 19:00 | 50.27946 | 8.03812 | 41047 ft | 498 kts | 103° |
| 2026-04-12 19:00 | 50.27059 | 8.14519 | 41041 ft | 497 kts | 103° |
| 2026-04-12 19:01 | 50.26155 | 8.25180 | 41044 ft | 498 kts | 103° |
| 2026-04-12 19:01 | 50.25237 | 8.35881 | 41054 ft | 497 kts | 103° |
| 2026-04-12 19:02 | 50.24310 | 8.46524 | 41042 ft | 498 kts | 103° |
| 2026-04-12 19:02 | 50.23370 | 8.57206 | 41030 ft | 499 kts | 103° |
| 2026-04-12 19:03 | 50.22422 | 8.67873 | 41042 ft | 499 kts | 104° |
| 2026-04-12 19:03 | 50.21457 | 8.78600 | 41048 ft | 499 kts | 104° |
| 2026-04-12 19:04 | 50.20486 | 8.89291 | 41059 ft | 499 kts | 103° |
| 2026-04-12 19:04 | 50.19511 | 8.99904 | 41064 ft | 498 kts | 103° |
| 2026-04-12 19:05 | 50.18521 | 9.10569 | 41051 ft | 500 kts | 104° |
| 2026-04-12 19:05 | 50.17516 | 9.21297 | 41060 ft | 500 kts | 103° |
| 2026-04-12 19:06 | 50.16509 | 9.31937 | 41054 ft | 500 kts | 103° |
| 2026-04-12 19:06 | 50.15485 | 9.42630 | 41047 ft | 501 kts | 104° |
| 2026-04-12 19:07 | 50.14391 | 9.53335 | 41041 ft | 501 kts | 104° |
| 2026-04-12 19:07 | 50.13280 | 9.63981 | 41038 ft | 501 kts | 104° |
| 2026-04-12 19:08 | 50.12163 | 9.74645 | 41031 ft | 501 kts | 105° |
| 2026-04-12 19:08 | 50.11033 | 9.85355 | 41032 ft | 501 kts | 105° |
| 2026-04-12 19:09 | 50.09902 | 9.95987 | 41034 ft | 501 kts | 105° |
| 2026-04-12 19:09 | 50.08760 | 10.06623 | 41029 ft | 501 kts | 105° |
| 2026-04-12 19:10 | 50.07600 | 10.17317 | 41028 ft | 502 kts | 105° |
| 2026-04-12 19:10 | 50.06441 | 10.27927 | 41031 ft | 501 kts | 105° |
| 2026-04-12 19:11 | 50.05262 | 10.38616 | 41022 ft | 503 kts | 105° |
| 2026-04-12 19:11 | 50.04080 | 10.49246 | 41028 ft | 503 kts | 105° |
| 2026-04-12 19:12 | 50.02876 | 10.59965 | 41020 ft | 504 kts | 104° |
| 2026-04-12 19:12 | 50.01673 | 10.70614 | 41020 ft | 503 kts | 105° |
| 2026-04-12 19:13 | 50.00454 | 10.81298 | 41016 ft | 504 kts | 105° |
| 2026-04-12 19:13 | 49.99228 | 10.91953 | 41014 ft | 503 kts | 105° |
| 2026-04-12 19:14 | 49.97990 | 11.02612 | 41016 ft | 504 kts | 105° |
| 2026-04-12 19:14 | 49.96742 | 11.13265 | 41005 ft | 505 kts | 105° |
| 2026-04-12 19:15 | 49.95478 | 11.23965 | 40998 ft | 504 kts | 105° |
| 2026-04-12 19:15 | 49.94206 | 11.34672 | 41005 ft | 505 kts | 105° |
| 2026-04-12 19:16 | 49.92929 | 11.45311 | 41001 ft | 505 kts | 105° |
| 2026-04-12 19:16 | 49.91640 | 11.55949 | 41002 ft | 505 kts | 105° |
| 2026-04-12 19:17 | 49.90344 | 11.66590 | 40988 ft | 504 kts | 105° |
| 2026-04-12 19:17 | 49.89034 | 11.77261 | 40979 ft | 503 kts | 105° |
| 2026-04-12 19:18 | 49.87714 | 11.87895 | 40994 ft | 503 kts | 105° |
| 2026-04-12 19:18 | 49.86392 | 11.98483 | 40976 ft | 504 kts | 105° |
| 2026-04-12 19:19 | 49.85063 | 12.09047 | 41003 ft | 503 kts | 105° |
| 2026-04-12 19:19 | 49.83714 | 12.19665 | 41003 ft | 504 kts | 105° |
| 2026-04-12 19:20 | 49.82516 | 12.30369 | 41006 ft | 507 kts | 102° |
| 2026-04-12 19:20 | 49.81518 | 12.41103 | 40997 ft | 505 kts | 103° |
| 2026-04-12 19:21 | 49.80002 | 12.51606 | 40998 ft | 502 kts | 110° |
| 2026-04-12 19:21 | 49.77954 | 12.61900 | 41010 ft | 503 kts | 111° |
| 2026-04-12 19:22 | 49.75872 | 12.72188 | 41013 ft | 502 kts | 111° |
| 2026-04-12 19:22 | 49.73790 | 12.82475 | 41007 ft | 503 kts | 111° |
| 2026-04-12 19:23 | 49.71715 | 12.92709 | 41017 ft | 503 kts | 111° |
| 2026-04-12 19:23 | 49.69616 | 13.03013 | 41021 ft | 504 kts | 111° |
| 2026-04-12 19:24 | 49.67516 | 13.13260 | 41050 ft | 504 kts | 111° |
| 2026-04-12 19:24 | 49.65394 | 13.23576 | 41024 ft | 504 kts | 111° |
| 2026-04-12 19:25 | 49.63278 | 13.33808 | 41038 ft | 504 kts | 111° |
| 2026-04-12 19:25 | 49.61148 | 13.44059 | 41038 ft | 503 kts | 111° |
| 2026-04-12 19:26 | 49.59024 | 13.54222 | 41027 ft | 503 kts | 111° |
| 2026-04-12 19:26 | 49.56874 | 13.64458 | 41036 ft | 503 kts | 111° |
| 2026-04-12 19:27 | 49.54723 | 13.74646 | 41032 ft | 503 kts | 111° |
| 2026-04-12 19:27 | 49.52553 | 13.84877 | 41024 ft | 503 kts | 111° |
| 2026-04-12 19:28 | 49.50392 | 13.95009 | 41020 ft | 503 kts | 111° |
| 2026-04-12 19:28 | 49.48206 | 14.05205 | 41043 ft | 503 kts | 111° |
| 2026-04-12 19:29 | 49.46027 | 14.15343 | 41019 ft | 502 kts | 111° |
| 2026-04-12 19:29 | 49.43819 | 14.25526 | 41015 ft | 502 kts | 111° |
| 2026-04-12 19:30 | 49.41625 | 14.35618 | 41036 ft | 502 kts | 111° |
| 2026-04-12 19:30 | 49.39406 | 14.45774 | 41021 ft | 503 kts | 111° |
| 2026-04-12 19:31 | 49.37183 | 14.55897 | 41028 ft | 503 kts | 111° |
| 2026-04-12 19:31 | 49.34942 | 14.66050 | 41014 ft | 503 kts | 112° |
| 2026-04-12 19:32 | 49.32698 | 14.76172 | 41021 ft | 504 kts | 112° |
| 2026-04-12 19:32 | 49.30448 | 14.86264 | 41023 ft | 504 kts | 112° |
| 2026-04-12 19:33 | 49.28180 | 14.96386 | 41027 ft | 505 kts | 111° |
| 2026-04-12 19:33 | 49.25897 | 15.06531 | 41012 ft | 505 kts | 111° |
| 2026-04-12 19:34 | 49.23609 | 15.16649 | 41015 ft | 506 kts | 111° |
| 2026-04-12 19:34 | 49.21303 | 15.26795 | 41016 ft | 507 kts | 111° |
| 2026-04-12 19:35 | 49.18996 | 15.36909 | 41020 ft | 507 kts | 111° |
| 2026-04-12 19:35 | 49.16670 | 15.47047 | 41017 ft | 508 kts | 111° |
| 2026-04-12 19:36 | 49.14329 | 15.57203 | 41024 ft | 509 kts | 111° |
| 2026-04-12 19:36 | 49.11357 | 15.66943 | 41029 ft | 505 kts | 123° |
| 2026-04-12 19:37 | 49.07845 | 15.76129 | 41023 ft | 505 kts | 123° |
| 2026-04-12 19:37 | 49.04339 | 15.85306 | 41038 ft | 506 kts | 123° |
| 2026-04-12 19:38 | 49.00820 | 15.94600 | 41039 ft | 508 kts | 123° |
| 2026-04-12 19:38 | 48.97319 | 16.03871 | 41041 ft | 508 kts | 122° |
| 2026-04-12 19:39 | 48.93803 | 16.13163 | 41047 ft | 507 kts | 122° |
| 2026-04-12 19:39 | 48.90300 | 16.22389 | 41042 ft | 507 kts | 122° |
| 2026-04-12 19:40 | 48.86764 | 16.31669 | 41047 ft | 507 kts | 122° |
| 2026-04-12 19:40 | 48.83260 | 16.40838 | 41055 ft | 507 kts | 122° |
| 2026-04-12 19:41 | 48.79717 | 16.50070 | 41061 ft | 507 kts | 122° |
| 2026-04-12 19:41 | 48.76181 | 16.59255 | 41060 ft | 507 kts | 122° |
| 2026-04-12 19:42 | 48.72624 | 16.68466 | 41061 ft | 507 kts | 123° |
| 2026-04-12 19:42 | 48.69083 | 16.77597 | 41069 ft | 507 kts | 123° |
| 2026-04-12 19:43 | 48.63725 | 16.91357 | 41074 ft | 508 kts | 122° |